sensor_id;sensor_type;location;lat;lon;timestamp;P1;durP1;ratioP1;P2;durP2;ratioP2
15356;SDS011;7778;48.792;9.260;2022-11-11T00:00:21;8.50;;;4.82;;
15356;SDS011;7778;48.792;9.260;2022-11-11T00:03:06;7.18;;;4.38;;
15356;SDS011;7778;48.792;9.260;2022-11-11T00:05:52;5.30;;;3.58;;
15356;SDS011;7778;48.792;9.260;2022-11-11T00:08:37;7.93;;;4.50;;
15356;SDS011;7778;48.792;9.260;2022-11-11T00:11:23;10.23;;;4.40;;
15356;SDS011;7778;48.792;9.260;2022-11-11T00:14:08;7.60;;;4.00;;
15356;SDS011;7778;48.792;9.260;2022-11-11T00:16:55;7.43;;;4.57;;
15356;SDS011;7778;48.792;9.260;2022-11-11T00:19:58;8.10;;;4.40;;
15356;SDS011;7778;48.792;9.260;2022-11-11T00:23:02;9.57;;;4.97;;
15356;SDS011;7778;48.792;9.260;2022-11-11T00:26:06;14.25;;;5.22;;
15356;SDS011;7778;48.792;9.260;2022-11-11T00:28:53;6.38;;;4.25;;
15356;SDS011;7778;48.792;9.260;2022-11-11T00:31:39;8.55;;;3.90;;
15356;SDS011;7778;48.792;9.260;2022-11-11T00:34:40;10.13;;;5.05;;
15356;SDS011;7778;48.792;9.260;2022-11-11T00:37:46;8.10;;;5.22;;
15356;SDS011;7778;48.792;9.260;2022-11-11T00:40:31;9.65;;;5.70;;
15356;SDS011;7778;48.792;9.260;2022-11-11T00:43:17;11.82;;;5.63;;
15356;SDS011;7778;48.792;9.260;2022-11-11T00:46:02;8.23;;;4.70;;
15356;SDS011;7778;48.792;9.260;2022-11-11T00:49:07;14.95;;;5.47;;
15356;SDS011;7778;48.792;9.260;2022-11-11T00:52:12;13.23;;;4.70;;
15356;SDS011;7778;48.792;9.260;2022-11-11T00:54:57;11.13;;;4.68;;
15356;SDS011;7778;48.792;9.260;2022-11-11T00:57:43;8.38;;;4.25;;
15356;SDS011;7778;48.792;9.260;2022-11-11T01:00:28;8.93;;;4.68;;
15356;SDS011;7778;48.792;9.260;2022-11-11T01:03:15;6.25;;;3.83;;
15356;SDS011;7778;48.792;9.260;2022-11-11T01:06:00;6.30;;;3.88;;
15356;SDS011;7778;48.792;9.260;2022-11-11T01:08:49;7.35;;;4.10;;
15356;SDS011;7778;48.792;9.260;2022-11-11T01:11:34;7.93;;;4.68;;
15356;SDS011;7778;48.792;9.260;2022-11-11T01:14:20;13.05;;;5.25;;
15356;SDS011;7778;48.792;9.260;2022-11-11T01:17:05;13.77;;;4.75;;
15356;SDS011;7778;48.792;9.260;2022-11-11T01:19:52;7.78;;;4.65;;
15356;SDS011;7778;48.792;9.260;2022-11-11T01:22:37;7.45;;;4.40;;
15356;SDS011;7778;48.792;9.260;2022-11-11T01:25:24;7.40;;;4.85;;
15356;SDS011;7778;48.792;9.260;2022-11-11T01:28:10;11.13;;;4.75;;
15356;SDS011;7778;48.792;9.260;2022-11-11T01:30:59;6.90;;;3.90;;
15356;SDS011;7778;48.792;9.260;2022-11-11T01:33:45;6.55;;;4.10;;
15356;SDS011;7778;48.792;9.260;2022-11-11T01:36:32;7.22;;;4.57;;
15356;SDS011;7778;48.792;9.260;2022-11-11T01:39:17;10.07;;;4.75;;
15356;SDS011;7778;48.792;9.260;2022-11-11T01:42:04;5.95;;;4.07;;
15356;SDS011;7778;48.792;9.260;2022-11-11T01:44:50;9.60;;;4.63;;
15356;SDS011;7778;48.792;9.260;2022-11-11T01:47:35;7.03;;;4.63;;
15356;SDS011;7778;48.792;9.260;2022-11-11T01:50:35;7.57;;;4.95;;
15356;SDS011;7778;48.792;9.260;2022-11-11T01:53:20;8.60;;;5.22;;
15356;SDS011;7778;48.792;9.260;2022-11-11T01:56:06;10.50;;;4.25;;
15356;SDS011;7778;48.792;9.260;2022-11-11T01:58:56;9.32;;;5.10;;
15356;SDS011;7778;48.792;9.260;2022-11-11T02:01:46;7.25;;;4.85;;
15356;SDS011;7778;48.792;9.260;2022-11-11T02:04:32;9.73;;;4.53;;
15356;SDS011;7778;48.792;9.260;2022-11-11T02:07:37;11.90;;;4.38;;
15356;SDS011;7778;48.792;9.260;2022-11-11T02:10:23;5.32;;;3.88;;
15356;SDS011;7778;48.792;9.260;2022-11-11T02:13:11;6.43;;;3.58;;
15356;SDS011;7778;48.792;9.260;2022-11-11T02:16:17;10.02;;;4.80;;
15356;SDS011;7778;48.792;9.260;2022-11-11T02:19:03;6.88;;;3.97;;
15356;SDS011;7778;48.792;9.260;2022-11-11T02:21:50;8.55;;;3.90;;
15356;SDS011;7778;48.792;9.260;2022-11-11T02:24:43;8.07;;;4.20;;
15356;SDS011;7778;48.792;9.260;2022-11-11T02:27:29;8.35;;;4.95;;
15356;SDS011;7778;48.792;9.260;2022-11-11T02:30:16;6.28;;;3.90;;
15356;SDS011;7778;48.792;9.260;2022-11-11T02:33:03;8.30;;;4.68;;
15356;SDS011;7778;48.792;9.260;2022-11-11T02:35:49;10.93;;;4.47;;
15356;SDS011;7778;48.792;9.260;2022-11-11T02:38:40;6.80;;;4.43;;
15356;SDS011;7778;48.792;9.260;2022-11-11T02:41:27;9.13;;;4.72;;
15356;SDS011;7778;48.792;9.260;2022-11-11T02:44:30;10.57;;;4.72;;
15356;SDS011;7778;48.792;9.260;2022-11-11T02:47:16;6.88;;;4.07;;
15356;SDS011;7778;48.792;9.260;2022-11-11T02:50:02;8.95;;;4.10;;
15356;SDS011;7778;48.792;9.260;2022-11-11T02:52:48;8.35;;;4.25;;
15356;SDS011;7778;48.792;9.260;2022-11-11T02:55:34;6.82;;;3.80;;
15356;SDS011;7778;48.792;9.260;2022-11-11T02:58:20;6.60;;;4.00;;
15356;SDS011;7778;48.792;9.260;2022-11-11T03:01:06;6.57;;;3.78;;
15356;SDS011;7778;48.792;9.260;2022-11-11T03:03:51;8.07;;;4.30;;
15356;SDS011;7778;48.792;9.260;2022-11-11T03:06:37;5.53;;;3.95;;
15356;SDS011;7778;48.792;9.260;2022-11-11T03:09:22;6.80;;;3.90;;
15356;SDS011;7778;48.792;9.260;2022-11-11T03:12:08;9.93;;;4.60;;
15356;SDS011;7778;48.792;9.260;2022-11-11T03:14:55;8.60;;;4.95;;
15356;SDS011;7778;48.792;9.260;2022-11-11T03:17:40;5.50;;;3.90;;
15356;SDS011;7778;48.792;9.260;2022-11-11T03:20:25;6.63;;;4.25;;
15356;SDS011;7778;48.792;9.260;2022-11-11T03:23:28;6.70;;;3.92;;
15356;SDS011;7778;48.792;9.260;2022-11-11T03:26:14;7.88;;;4.95;;
15356;SDS011;7778;48.792;9.260;2022-11-11T03:29:00;7.43;;;4.43;;
15356;SDS011;7778;48.792;9.260;2022-11-11T03:31:47;8.18;;;4.32;;
15356;SDS011;7778;48.792;9.260;2022-11-11T03:34:32;10.75;;;5.32;;
15356;SDS011;7778;48.792;9.260;2022-11-11T03:37:18;9.65;;;5.10;;
15356;SDS011;7778;48.792;9.260;2022-11-11T03:40:21;10.73;;;5.82;;
15356;SDS011;7778;48.792;9.260;2022-11-11T03:43:07;9.00;;;5.50;;
15356;SDS011;7778;48.792;9.260;2022-11-11T03:45:53;8.32;;;4.53;;
15356;SDS011;7778;48.792;9.260;2022-11-11T03:48:42;10.38;;;4.82;;
15356;SDS011;7778;48.792;9.260;2022-11-11T03:51:27;7.18;;;4.45;;
15356;SDS011;7778;48.792;9.260;2022-11-11T03:54:13;8.68;;;5.03;;
15356;SDS011;7778;48.792;9.260;2022-11-11T03:56:58;8.48;;;5.10;;
15356;SDS011;7778;48.792;9.260;2022-11-11T04:00:02;11.15;;;4.60;;
15356;SDS011;7778;48.792;9.260;2022-11-11T04:02:49;7.68;;;4.78;;
15356;SDS011;7778;48.792;9.260;2022-11-11T04:05:54;9.13;;;5.15;;
15356;SDS011;7778;48.792;9.260;2022-11-11T04:09:00;6.95;;;4.78;;
15356;SDS011;7778;48.792;9.260;2022-11-11T04:12:04;8.70;;;4.63;;
15356;SDS011;7778;48.792;9.260;2022-11-11T04:14:49;6.60;;;4.47;;
15356;SDS011;7778;48.792;9.260;2022-11-11T04:17:53;9.88;;;5.28;;
15356;SDS011;7778;48.792;9.260;2022-11-11T04:20:41;5.35;;;4.03;;
15356;SDS011;7778;48.792;9.260;2022-11-11T04:23:46;7.97;;;4.50;;
15356;SDS011;7778;48.792;9.260;2022-11-11T04:26:31;7.35;;;4.53;;
15356;SDS011;7778;48.792;9.260;2022-11-11T04:29:16;7.13;;;4.65;;
15356;SDS011;7778;48.792;9.260;2022-11-11T04:32:14;7.72;;;4.78;;
15356;SDS011;7778;48.792;9.260;2022-11-11T04:35:21;3.88;;;3.25;;
15356;SDS011;7778;48.792;9.260;2022-11-11T04:38:08;7.60;;;4.57;;
15356;SDS011;7778;48.792;9.260;2022-11-11T04:41:13;6.55;;;4.03;;
15356;SDS011;7778;48.792;9.260;2022-11-11T04:43:58;6.28;;;4.03;;
15356;SDS011;7778;48.792;9.260;2022-11-11T04:47:02;6.15;;;3.88;;
15356;SDS011;7778;48.792;9.260;2022-11-11T04:49:47;7.22;;;3.75;;
15356;SDS011;7778;48.792;9.260;2022-11-11T04:52:33;5.53;;;3.70;;
15356;SDS011;7778;48.792;9.260;2022-11-11T04:55:18;6.78;;;3.58;;
15356;SDS011;7778;48.792;9.260;2022-11-11T04:58:23;6.63;;;4.15;;
15356;SDS011;7778;48.792;9.260;2022-11-11T05:01:11;6.00;;;3.80;;
15356;SDS011;7778;48.792;9.260;2022-11-11T05:04:17;7.15;;;4.25;;
15356;SDS011;7778;48.792;9.260;2022-11-11T05:07:01;9.13;;;4.35;;
15356;SDS011;7778;48.792;9.260;2022-11-11T05:10:06;8.82;;;4.85;;
15356;SDS011;7778;48.792;9.260;2022-11-11T05:12:52;10.65;;;4.45;;
15356;SDS011;7778;48.792;9.260;2022-11-11T05:15:59;7.88;;;3.72;;
15356;SDS011;7778;48.792;9.260;2022-11-11T05:19:03;14.63;;;4.53;;
15356;SDS011;7778;48.792;9.260;2022-11-11T05:22:08;6.68;;;4.50;;
15356;SDS011;7778;48.792;9.260;2022-11-11T05:24:58;5.80;;;4.00;;
15356;SDS011;7778;48.792;9.260;2022-11-11T05:28:01;5.80;;;3.92;;
15356;SDS011;7778;48.792;9.260;2022-11-11T05:30:47;7.55;;;4.13;;
15356;SDS011;7778;48.792;9.260;2022-11-11T05:33:34;6.93;;;4.57;;
15356;SDS011;7778;48.792;9.260;2022-11-11T05:36:19;6.47;;;3.70;;
15356;SDS011;7778;48.792;9.260;2022-11-11T05:39:05;6.60;;;4.22;;
15356;SDS011;7778;48.792;9.260;2022-11-11T05:41:50;5.25;;;4.30;;
15356;SDS011;7778;48.792;9.260;2022-11-11T05:44:36;6.82;;;4.00;;
15356;SDS011;7778;48.792;9.260;2022-11-11T05:47:21;5.78;;;3.83;;
15356;SDS011;7778;48.792;9.260;2022-11-11T05:50:09;6.90;;;4.57;;
15356;SDS011;7778;48.792;9.260;2022-11-11T05:52:54;6.97;;;4.38;;
15356;SDS011;7778;48.792;9.260;2022-11-11T05:55:40;9.20;;;4.43;;
15356;SDS011;7778;48.792;9.260;2022-11-11T05:58:25;6.40;;;4.00;;
15356;SDS011;7778;48.792;9.260;2022-11-11T06:01:11;5.82;;;3.92;;
15356;SDS011;7778;48.792;9.260;2022-11-11T06:03:56;7.72;;;5.15;;
15356;SDS011;7778;48.792;9.260;2022-11-11T06:06:43;8.35;;;5.18;;
15356;SDS011;7778;48.792;9.260;2022-11-11T06:09:29;7.88;;;4.95;;
15356;SDS011;7778;48.792;9.260;2022-11-11T06:12:14;5.85;;;4.57;;
15356;SDS011;7778;48.792;9.260;2022-11-11T06:15:00;7.20;;;5.18;;
15356;SDS011;7778;48.792;9.260;2022-11-11T06:17:45;7.13;;;4.53;;
15356;SDS011;7778;48.792;9.260;2022-11-11T06:20:31;6.05;;;3.55;;
15356;SDS011;7778;48.792;9.260;2022-11-11T06:23:19;7.47;;;4.28;;
15356;SDS011;7778;48.792;9.260;2022-11-11T06:26:05;7.85;;;4.10;;
15356;SDS011;7778;48.792;9.260;2022-11-11T06:28:57;8.75;;;4.70;;
15356;SDS011;7778;48.792;9.260;2022-11-11T06:31:42;8.30;;;4.65;;
15356;SDS011;7778;48.792;9.260;2022-11-11T06:34:29;7.93;;;4.63;;
15356;SDS011;7778;48.792;9.260;2022-11-11T06:37:14;9.70;;;4.75;;
15356;SDS011;7778;48.792;9.260;2022-11-11T06:40:01;7.00;;;4.70;;
15356;SDS011;7778;48.792;9.260;2022-11-11T06:42:47;6.65;;;4.35;;
15356;SDS011;7778;48.792;9.260;2022-11-11T06:45:33;10.13;;;5.18;;
15356;SDS011;7778;48.792;9.260;2022-11-11T06:48:19;7.47;;;4.22;;
15356;SDS011;7778;48.792;9.260;2022-11-11T06:51:06;8.75;;;4.65;;
15356;SDS011;7778;48.792;9.260;2022-11-11T06:53:51;7.25;;;4.65;;
15356;SDS011;7778;48.792;9.260;2022-11-11T06:56:38;7.90;;;4.70;;
15356;SDS011;7778;48.792;9.260;2022-11-11T06:59:23;5.32;;;4.47;;
15356;SDS011;7778;48.792;9.260;2022-11-11T07:02:09;6.60;;;4.53;;
15356;SDS011;7778;48.792;9.260;2022-11-11T07:04:57;10.43;;;4.32;;
15356;SDS011;7778;48.792;9.260;2022-11-11T07:07:43;8.35;;;4.20;;
15356;SDS011;7778;48.792;9.260;2022-11-11T07:10:28;6.75;;;4.68;;
15356;SDS011;7778;48.792;9.260;2022-11-11T07:13:16;7.95;;;4.43;;
15356;SDS011;7778;48.792;9.260;2022-11-11T07:16:01;6.53;;;4.40;;
15356;SDS011;7778;48.792;9.260;2022-11-11T07:18:47;6.60;;;4.28;;
15356;SDS011;7778;48.792;9.260;2022-11-11T07:21:33;5.15;;;3.47;;
15356;SDS011;7778;48.792;9.260;2022-11-11T07:24:18;5.72;;;3.92;;
15356;SDS011;7778;48.792;9.260;2022-11-11T07:27:04;7.72;;;4.03;;
15356;SDS011;7778;48.792;9.260;2022-11-11T07:29:51;5.57;;;3.58;;
15356;SDS011;7778;48.792;9.260;2022-11-11T07:32:38;6.18;;;3.30;;
15356;SDS011;7778;48.792;9.260;2022-11-11T07:35:29;6.18;;;3.67;;
15356;SDS011;7778;48.792;9.260;2022-11-11T07:38:14;4.07;;;3.30;;
15356;SDS011;7778;48.792;9.260;2022-11-11T07:41:00;5.10;;;3.15;;
15356;SDS011;7778;48.792;9.260;2022-11-11T07:43:45;6.88;;;4.35;;
15356;SDS011;7778;48.792;9.260;2022-11-11T07:46:32;7.82;;;4.35;;
15356;SDS011;7778;48.792;9.260;2022-11-11T07:49:17;7.28;;;3.92;;
15356;SDS011;7778;48.792;9.260;2022-11-11T07:52:03;8.43;;;4.30;;
15356;SDS011;7778;48.792;9.260;2022-11-11T07:54:49;6.75;;;4.22;;
15356;SDS011;7778;48.792;9.260;2022-11-11T07:57:34;9.27;;;3.90;;
15356;SDS011;7778;48.792;9.260;2022-11-11T08:00:20;6.28;;;3.55;;
15356;SDS011;7778;48.792;9.260;2022-11-11T08:03:07;9.35;;;4.40;;
15356;SDS011;7778;48.792;9.260;2022-11-11T08:05:54;5.70;;;3.70;;
15356;SDS011;7778;48.792;9.260;2022-11-11T08:08:39;6.68;;;3.92;;
15356;SDS011;7778;48.792;9.260;2022-11-11T08:11:25;5.60;;;3.80;;
15356;SDS011;7778;48.792;9.260;2022-11-11T08:14:24;4.68;;;2.80;;
15356;SDS011;7778;48.792;9.260;2022-11-11T08:17:10;4.18;;;3.25;;
15356;SDS011;7778;48.792;9.260;2022-11-11T08:19:57;4.35;;;2.67;;
15356;SDS011;7778;48.792;9.260;2022-11-11T08:22:42;5.28;;;3.15;;
15356;SDS011;7778;48.792;9.260;2022-11-11T08:25:28;4.25;;;3.05;;
15356;SDS011;7778;48.792;9.260;2022-11-11T08:28:14;8.73;;;3.83;;
15356;SDS011;7778;48.792;9.260;2022-11-11T08:31:00;7.78;;;3.70;;
15356;SDS011;7778;48.792;9.260;2022-11-11T08:33:46;7.75;;;3.72;;
15356;SDS011;7778;48.792;9.260;2022-11-11T08:36:32;4.55;;;3.47;;
15356;SDS011;7778;48.792;9.260;2022-11-11T08:39:18;6.65;;;3.88;;
15356;SDS011;7778;48.792;9.260;2022-11-11T08:42:04;5.38;;;3.40;;
15356;SDS011;7778;48.792;9.260;2022-11-11T08:44:49;6.38;;;3.38;;
15356;SDS011;7778;48.792;9.260;2022-11-11T08:47:35;7.65;;;4.13;;
15356;SDS011;7778;48.792;9.260;2022-11-11T08:50:21;5.57;;;3.13;;
15356;SDS011;7778;48.792;9.260;2022-11-11T08:53:08;5.53;;;3.10;;
15356;SDS011;7778;48.792;9.260;2022-11-11T08:55:54;6.50;;;3.47;;
15356;SDS011;7778;48.792;9.260;2022-11-11T08:58:40;6.35;;;3.47;;
15356;SDS011;7778;48.792;9.260;2022-11-11T09:01:25;7.35;;;3.47;;
15356;SDS011;7778;48.792;9.260;2022-11-11T09:04:11;5.10;;;3.85;;
15356;SDS011;7778;48.792;9.260;2022-11-11T09:06:56;5.25;;;3.30;;
15356;SDS011;7778;48.792;9.260;2022-11-11T09:09:43;5.22;;;3.47;;
15356;SDS011;7778;48.792;9.260;2022-11-11T09:12:28;5.25;;;3.00;;
15356;SDS011;7778;48.792;9.260;2022-11-11T09:15:14;6.00;;;3.03;;
15356;SDS011;7778;48.792;9.260;2022-11-11T09:18:00;4.10;;;3.17;;
15356;SDS011;7778;48.792;9.260;2022-11-11T09:20:46;10.82;;;3.35;;
15356;SDS011;7778;48.792;9.260;2022-11-11T09:23:31;2.85;;;2.40;;
15356;SDS011;7778;48.792;9.260;2022-11-11T09:26:18;3.90;;;2.72;;
15356;SDS011;7778;48.792;9.260;2022-11-11T09:29:04;3.65;;;2.88;;
15356;SDS011;7778;48.792;9.260;2022-11-11T09:31:49;4.82;;;2.80;;
15356;SDS011;7778;48.792;9.260;2022-11-11T09:34:34;3.25;;;2.42;;
15356;SDS011;7778;48.792;9.260;2022-11-11T09:37:20;4.82;;;2.40;;
15356;SDS011;7778;48.792;9.260;2022-11-11T09:40:07;3.60;;;2.53;;
15356;SDS011;7778;48.792;9.260;2022-11-11T09:43:04;4.80;;;2.42;;
15356;SDS011;7778;48.792;9.260;2022-11-11T09:46:09;4.47;;;2.60;;
15356;SDS011;7778;48.792;9.260;2022-11-11T09:49:16;4.55;;;2.33;;
15356;SDS011;7778;48.792;9.260;2022-11-11T09:52:27;3.85;;;2.72;;
15356;SDS011;7778;48.792;9.260;2022-11-11T09:55:17;3.00;;;2.30;;
15356;SDS011;7778;48.792;9.260;2022-11-11T09:58:10;4.97;;;3.00;;
15356;SDS011;7778;48.792;9.260;2022-11-11T10:01:04;3.17;;;2.67;;
15356;SDS011;7778;48.792;9.260;2022-11-11T10:03:58;4.13;;;2.33;;
15356;SDS011;7778;48.792;9.260;2022-11-11T10:06:49;5.63;;;2.50;;
15356;SDS011;7778;48.792;9.260;2022-11-11T10:09:45;4.88;;;2.97;;
15356;SDS011;7778;48.792;9.260;2022-11-11T10:12:41;5.07;;;2.90;;
15356;SDS011;7778;48.792;9.260;2022-11-11T10:15:40;5.57;;;3.00;;
15356;SDS011;7778;48.792;9.260;2022-11-11T10:18:46;9.93;;;3.17;;
15356;SDS011;7778;48.792;9.260;2022-11-11T10:21:47;7.45;;;3.13;;
15356;SDS011;7778;48.792;9.260;2022-11-11T10:24:36;2.78;;;2.38;;
15356;SDS011;7778;48.792;9.260;2022-11-11T10:27:25;4.45;;;2.63;;
15356;SDS011;7778;48.792;9.260;2022-11-11T10:30:15;3.97;;;2.67;;
15356;SDS011;7778;48.792;9.260;2022-11-11T10:33:09;5.75;;;2.97;;
15356;SDS011;7778;48.792;9.260;2022-11-11T10:36:01;3.92;;;2.55;;
15356;SDS011;7778;48.792;9.260;2022-11-11T10:38:49;5.72;;;2.40;;
15356;SDS011;7778;48.792;9.260;2022-11-11T10:41:41;5.53;;;2.78;;
15356;SDS011;7778;48.792;9.260;2022-11-11T10:44:31;5.60;;;2.75;;
15356;SDS011;7778;48.792;9.260;2022-11-11T10:47:36;5.80;;;2.70;;
15356;SDS011;7778;48.792;9.260;2022-11-11T10:50:30;4.53;;;2.30;;
15356;SDS011;7778;48.792;9.260;2022-11-11T10:53:21;3.70;;;2.35;;
15356;SDS011;7778;48.792;9.260;2022-11-11T10:56:17;4.05;;;2.90;;
15356;SDS011;7778;48.792;9.260;2022-11-11T10:59:11;6.72;;;3.00;;
15356;SDS011;7778;48.792;9.260;2022-11-11T11:02:03;4.55;;;2.95;;
15356;SDS011;7778;48.792;9.260;2022-11-11T11:04:59;6.03;;;3.50;;
15356;SDS011;7778;48.792;9.260;2022-11-11T11:07:52;7.30;;;3.72;;
15356;SDS011;7778;48.792;9.260;2022-11-11T11:10:42;6.15;;;2.85;;
15356;SDS011;7778;48.792;9.260;2022-11-11T11:13:35;5.72;;;2.60;;
15356;SDS011;7778;48.792;9.260;2022-11-11T11:16:27;9.88;;;2.75;;
15356;SDS011;7778;48.792;9.260;2022-11-11T11:19:18;6.75;;;2.90;;
15356;SDS011;7778;48.792;9.260;2022-11-11T11:22:05;7.97;;;2.92;;
15356;SDS011;7778;48.792;9.260;2022-11-11T11:24:54;3.45;;;2.65;;
15356;SDS011;7778;48.792;9.260;2022-11-11T11:28:04;3.67;;;3.10;;
15356;SDS011;7778;48.792;9.260;2022-11-11T11:30:59;4.47;;;2.45;;
15356;SDS011;7778;48.792;9.260;2022-11-11T11:33:53;4.70;;;2.85;;
15356;SDS011;7778;48.792;9.260;2022-11-11T11:36:40;6.05;;;3.53;;
15356;SDS011;7778;48.792;9.260;2022-11-11T11:39:30;6.05;;;2.78;;
15356;SDS011;7778;48.792;9.260;2022-11-11T11:42:29;7.22;;;3.60;;
15356;SDS011;7778;48.792;9.260;2022-11-11T11:45:21;6.63;;;2.92;;
15356;SDS011;7778;48.792;9.260;2022-11-11T11:48:15;7.22;;;3.05;;
15356;SDS011;7778;48.792;9.260;2022-11-11T11:51:17;5.00;;;3.22;;
15356;SDS011;7778;48.792;9.260;2022-11-11T11:54:16;5.43;;;2.95;;
15356;SDS011;7778;48.792;9.260;2022-11-11T11:57:28;6.45;;;2.90;;
15356;SDS011;7778;48.792;9.260;2022-11-11T12:00:30;5.40;;;3.03;;
15356;SDS011;7778;48.792;9.260;2022-11-11T12:03:41;4.07;;;3.15;;
15356;SDS011;7778;48.792;9.260;2022-11-11T12:07:00;6.22;;;2.80;;
15356;SDS011;7778;48.792;9.260;2022-11-11T12:09:57;7.35;;;3.28;;
15356;SDS011;7778;48.792;9.260;2022-11-11T12:12:58;5.28;;;3.05;;
15356;SDS011;7778;48.792;9.260;2022-11-11T12:16:02;4.88;;;2.65;;
15356;SDS011;7778;48.792;9.260;2022-11-11T12:19:21;6.88;;;2.60;;
15356;SDS011;7778;48.792;9.260;2022-11-11T12:22:40;6.20;;;2.80;;
15356;SDS011;7778;48.792;9.260;2022-11-11T12:25:49;3.72;;;2.35;;
15356;SDS011;7778;48.792;9.260;2022-11-11T12:28:58;2.10;;;1.90;;
15356;SDS011;7778;48.792;9.260;2022-11-11T12:32:06;3.70;;;2.08;;
15356;SDS011;7778;48.792;9.260;2022-11-11T12:35:37;5.63;;;2.25;;
15356;SDS011;7778;48.792;9.260;2022-11-11T12:41:48;2.95;;;2.28;;
15356;SDS011;7778;48.792;9.260;2022-11-11T12:44:50;6.18;;;1.98;;
15356;SDS011;7778;48.792;9.260;2022-11-11T12:47:51;4.22;;;2.10;;
15356;SDS011;7778;48.792;9.260;2022-11-11T12:50:50;3.78;;;2.03;;
15356;SDS011;7778;48.792;9.260;2022-11-11T12:53:49;6.20;;;2.63;;
15356;SDS011;7778;48.792;9.260;2022-11-11T12:56:45;5.78;;;2.50;;
15356;SDS011;7778;48.792;9.260;2022-11-11T12:59:43;4.50;;;2.70;;
15356;SDS011;7778;48.792;9.260;2022-11-11T13:06:12;8.05;;;3.38;;
15356;SDS011;7778;48.792;9.260;2022-11-11T13:09:23;4.65;;;3.25;;
15356;SDS011;7778;48.792;9.260;2022-11-11T13:12:42;7.20;;;3.58;;
15356;SDS011;7778;48.792;9.260;2022-11-11T13:15:35;5.05;;;3.05;;
15356;SDS011;7778;48.792;9.260;2022-11-11T13:18:25;6.70;;;2.90;;
15356;SDS011;7778;48.792;9.260;2022-11-11T13:21:14;4.40;;;2.97;;
15356;SDS011;7778;48.792;9.260;2022-11-11T13:24:07;8.98;;;3.28;;
15356;SDS011;7778;48.792;9.260;2022-11-11T13:26:57;7.63;;;3.58;;
15356;SDS011;7778;48.792;9.260;2022-11-11T13:29:58;5.95;;;3.17;;
15356;SDS011;7778;48.792;9.260;2022-11-11T13:33:06;3.63;;;2.35;;
15356;SDS011;7778;48.792;9.260;2022-11-11T13:35:55;6.05;;;3.08;;
15356;SDS011;7778;48.792;9.260;2022-11-11T13:38:44;4.88;;;3.05;;
15356;SDS011;7778;48.792;9.260;2022-11-11T13:41:32;4.38;;;2.75;;
15356;SDS011;7778;48.792;9.260;2022-11-11T13:44:23;4.43;;;2.85;;
15356;SDS011;7778;48.792;9.260;2022-11-11T13:47:15;7.35;;;2.80;;
15356;SDS011;7778;48.792;9.260;2022-11-11T13:50:07;4.40;;;2.35;;
15356;SDS011;7778;48.792;9.260;2022-11-11T13:52:59;2.97;;;2.33;;
15356;SDS011;7778;48.792;9.260;2022-11-11T13:55:47;4.63;;;2.72;;
15356;SDS011;7778;48.792;9.260;2022-11-11T13:58:35;11.40;;;3.38;;
15356;SDS011;7778;48.792;9.260;2022-11-11T14:01:22;4.60;;;2.80;;
15356;SDS011;7778;48.792;9.260;2022-11-11T14:04:09;6.80;;;2.67;;
15356;SDS011;7778;48.792;9.260;2022-11-11T14:06:57;5.57;;;2.47;;
15356;SDS011;7778;48.792;9.260;2022-11-11T14:09:53;4.10;;;2.08;;
15356;SDS011;7778;48.792;9.260;2022-11-11T14:12:43;4.07;;;2.72;;
15356;SDS011;7778;48.792;9.260;2022-11-11T14:15:34;4.53;;;2.40;;
15356;SDS011;7778;48.792;9.260;2022-11-11T14:18:31;8.13;;;3.15;;
15356;SDS011;7778;48.792;9.260;2022-11-11T14:24:35;4.40;;;2.55;;
15356;SDS011;7778;48.792;9.260;2022-11-11T14:27:24;4.75;;;2.97;;
15356;SDS011;7778;48.792;9.260;2022-11-11T14:30:26;4.85;;;3.00;;
15356;SDS011;7778;48.792;9.260;2022-11-11T14:33:21;7.72;;;3.25;;
15356;SDS011;7778;48.792;9.260;2022-11-11T14:36:27;7.78;;;3.17;;
15356;SDS011;7778;48.792;9.260;2022-11-11T14:39:27;5.93;;;3.50;;
15356;SDS011;7778;48.792;9.260;2022-11-11T14:42:44;6.07;;;3.28;;
15356;SDS011;7778;48.792;9.260;2022-11-11T14:48:55;6.97;;;3.67;;
15356;SDS011;7778;48.792;9.260;2022-11-11T14:51:47;10.35;;;4.72;;
15356;SDS011;7778;48.792;9.260;2022-11-11T14:54:57;5.63;;;2.38;;
15356;SDS011;7778;48.792;9.260;2022-11-11T14:57:54;6.78;;;2.78;;
15356;SDS011;7778;48.792;9.260;2022-11-11T15:00:43;5.78;;;2.63;;
15356;SDS011;7778;48.792;9.260;2022-11-11T15:03:35;5.25;;;2.88;;
15356;SDS011;7778;48.792;9.260;2022-11-11T15:06:25;5.78;;;2.63;;
15356;SDS011;7778;48.792;9.260;2022-11-11T15:09:25;5.05;;;2.75;;
15356;SDS011;7778;48.792;9.260;2022-11-11T15:12:44;7.43;;;2.35;;
15356;SDS011;7778;48.792;9.260;2022-11-11T15:15:59;4.78;;;2.25;;
15356;SDS011;7778;48.792;9.260;2022-11-11T15:19:09;5.97;;;3.00;;
15356;SDS011;7778;48.792;9.260;2022-11-11T15:22:11;5.35;;;2.80;;
15356;SDS011;7778;48.792;9.260;2022-11-11T15:25:17;7.93;;;2.90;;
15356;SDS011;7778;48.792;9.260;2022-11-11T15:28:33;5.28;;;2.83;;
15356;SDS011;7778;48.792;9.260;2022-11-11T15:31:40;5.43;;;3.10;;
15356;SDS011;7778;48.792;9.260;2022-11-11T15:34:34;6.68;;;2.70;;
15356;SDS011;7778;48.792;9.260;2022-11-11T15:37:25;6.05;;;3.10;;
15356;SDS011;7778;48.792;9.260;2022-11-11T15:40:16;4.43;;;3.28;;
15356;SDS011;7778;48.792;9.260;2022-11-11T15:43:12;12.65;;;5.93;;
15356;SDS011;7778;48.792;9.260;2022-11-11T15:46:03;11.02;;;7.10;;
15356;SDS011;7778;48.792;9.260;2022-11-11T15:48:49;11.35;;;6.72;;
15356;SDS011;7778;48.792;9.260;2022-11-11T15:51:35;11.18;;;6.10;;
15356;SDS011;7778;48.792;9.260;2022-11-11T15:54:21;6.47;;;3.90;;
15356;SDS011;7778;48.792;9.260;2022-11-11T15:57:23;8.48;;;4.35;;
15356;SDS011;7778;48.792;9.260;2022-11-11T16:00:27;6.63;;;3.33;;
15356;SDS011;7778;48.792;9.260;2022-11-11T16:03:17;5.18;;;2.50;;
15356;SDS011;7778;48.792;9.260;2022-11-11T16:06:07;9.50;;;3.10;;
15356;SDS011;7778;48.792;9.260;2022-11-11T16:08:55;5.38;;;3.10;;
15356;SDS011;7778;48.792;9.260;2022-11-11T16:11:41;4.28;;;2.20;;
15356;SDS011;7778;48.792;9.260;2022-11-11T16:14:27;9.32;;;2.97;;
15356;SDS011;7778;48.792;9.260;2022-11-11T16:17:19;4.80;;;3.05;;
15356;SDS011;7778;48.792;9.260;2022-11-11T16:20:12;7.55;;;4.28;;
15356;SDS011;7778;48.792;9.260;2022-11-11T16:23:00;8.35;;;4.63;;
15356;SDS011;7778;48.792;9.260;2022-11-11T16:25:49;8.60;;;4.45;;
15356;SDS011;7778;48.792;9.260;2022-11-11T16:28:37;5.75;;;4.15;;
15356;SDS011;7778;48.792;9.260;2022-11-11T16:31:35;9.70;;;4.75;;
15356;SDS011;7778;48.792;9.260;2022-11-11T16:34:35;9.35;;;4.10;;
15356;SDS011;7778;48.792;9.260;2022-11-11T16:37:29;7.28;;;4.15;;
15356;SDS011;7778;48.792;9.260;2022-11-11T16:40:35;7.72;;;4.10;;
15356;SDS011;7778;48.792;9.260;2022-11-11T16:43:26;7.90;;;3.08;;
15356;SDS011;7778;48.792;9.260;2022-11-11T16:46:15;5.75;;;3.20;;
15356;SDS011;7778;48.792;9.260;2022-11-11T16:49:24;7.25;;;3.85;;
15356;SDS011;7778;48.792;9.260;2022-11-11T16:52:14;6.85;;;3.65;;
15356;SDS011;7778;48.792;9.260;2022-11-11T16:55:07;6.70;;;3.92;;
15356;SDS011;7778;48.792;9.260;2022-11-11T16:57:55;5.50;;;3.80;;
15356;SDS011;7778;48.792;9.260;2022-11-11T17:00:42;5.55;;;3.10;;
15356;SDS011;7778;48.792;9.260;2022-11-11T17:03:29;7.45;;;3.55;;
15356;SDS011;7778;48.792;9.260;2022-11-11T17:06:15;7.78;;;3.10;;
15356;SDS011;7778;48.792;9.260;2022-11-11T17:09:01;5.80;;;3.30;;
15356;SDS011;7778;48.792;9.260;2022-11-11T17:12:28;4.90;;;3.20;;
15356;SDS011;7778;48.792;9.260;2022-11-11T17:15:14;7.53;;;4.30;;
15356;SDS011;7778;48.792;9.260;2022-11-11T17:18:02;8.15;;;4.57;;
15356;SDS011;7778;48.792;9.260;2022-11-11T17:20:48;9.73;;;5.70;;
15356;SDS011;7778;48.792;9.260;2022-11-11T17:23:34;10.35;;;4.30;;
15356;SDS011;7778;48.792;9.260;2022-11-11T17:26:20;8.60;;;5.00;;
15356;SDS011;7778;48.792;9.260;2022-11-11T17:29:07;8.13;;;5.03;;
15356;SDS011;7778;48.792;9.260;2022-11-11T17:31:54;9.07;;;5.10;;
15356;SDS011;7778;48.792;9.260;2022-11-11T17:34:39;10.68;;;5.25;;
15356;SDS011;7778;48.792;9.260;2022-11-11T17:37:24;10.10;;;5.40;;
15356;SDS011;7778;48.792;9.260;2022-11-11T17:40:10;10.40;;;5.65;;
15356;SDS011;7778;48.792;9.260;2022-11-11T17:42:56;9.80;;;6.00;;